Aviation Digital Data Service (ADDS)

Output produced by METARs form (1017 UTC 19 January 2019)
found at http://www.aviationweather.gov/metar/data/
 
METAR text: LFMV 191000Z AUTO 35005KT CAVOK 04/M02 Q1016 NOSIG
Conditions at: LFMV (CAUMONT , FR) observed 1000 UTC 19 January 2019
Temperature: 4.0°C (39°F)
Dewpoint: -2.0°C (28°F) [RH = 65%]
Pressure (altimeter): 30.00 inches Hg (1016.0 mb)
Winds: from the N (350 degrees) at 6 MPH (5 knots; 2.6 m/s)
Visibility: 6 or more miles (10+ km)
Ceiling: ceiling and visibility are OK
Clouds: unknown
Weather: no significant weather observed at this time

METAR text: LFMV 190930Z AUTO 01005KT CAVOK 02/M02 Q1015 NOSIG
Conditions at: LFMV (CAUMONT , FR) observed 0930 UTC 19 January 2019
Temperature: 2.0°C (36°F)
Dewpoint: -2.0°C (28°F) [RH = 75%]
Pressure (altimeter): 29.97 inches Hg (1015.0 mb)
Winds: from the N (10 degrees) at 6 MPH (5 knots; 2.6 m/s)
Visibility: 6 or more miles (10+ km)
Ceiling: ceiling and visibility are OK
Clouds: unknown
Weather: no significant weather observed at this time

Forecast for: LFMV (CAUMONT , FR)
Text: TAF LFMV 190800Z 1909/2009 VRB05KT CAVOK
Forecast period: 0900 UTC 19 January 2019 to 0000 UTC 20 January 2019
Forecast type: FROM: standard forecast or significant change
Winds: variable direction winds at 6 MPH (5 knots; 2.6 m/s)
Visibility: 6 or more miles 10+ km)
Ceiling: unknown
Clouds: missing
Weather: NSW  (no significant weather)
Text: TEMPO 1921/2007 4000 BR
Forecast period: 2100 UTC 19 January 2019 to 0700 UTC 20 January 2019
Forecast type: TEMPORARY: The following changes expected for less than half the time period
Visibility: 2.49 miles (4.01 km)
Ceiling: unknown
Clouds: missing
Weather: BR  (mist)
Text: BECMG 2000/2002 BKN014
Forecast period: 0000 to 0900 UTC 20 January 2019
Forecast type: BECOMING: Conditions expected to become as follows by 0200 UTC 20 January 2019
Winds: variable direction winds at 6 MPH (5 knots; 2.6 m/s)
Visibility: 6 or more miles 10+ km)
Ceiling: 1400 feet AGL
Clouds: broken clouds at 1400 feet AGL
Weather: NSW  (no significant weather)